sensor_id;sensor_type;location;lat;lon;timestamp;P1;durP1;ratioP1;P2;durP2;ratioP2
26040;SDS011;13816;53.628;9.950;2024-01-06T00:57:32;5.90;;;5.00;;
26040;SDS011;13816;53.628;9.950;2024-01-06T01:00:00;6.63;;;5.50;;
26040;SDS011;13816;53.628;9.950;2024-01-06T01:02:27;6.00;;;4.87;;
26040;SDS011;13816;53.628;9.950;2024-01-06T01:04:54;7.97;;;5.30;;
26040;SDS011;13816;53.628;9.950;2024-01-06T01:07:24;5.80;;;4.90;;
26040;SDS011;13816;53.628;9.950;2024-01-06T01:09:51;6.90;;;5.73;;
26040;SDS011;13816;53.628;9.950;2024-01-06T01:12:19;7.60;;;5.47;;
26040;SDS011;13816;53.628;9.950;2024-01-06T01:14:46;6.07;;;5.47;;
26040;SDS011;13816;53.628;9.950;2024-01-06T01:17:14;8.13;;;5.80;;
26040;SDS011;13816;53.628;9.950;2024-01-06T01:19:41;5.60;;;5.00;;
26040;SDS011;13816;53.628;9.950;2024-01-06T01:22:09;7.73;;;5.17;;
26040;SDS011;13816;53.628;9.950;2024-01-06T01:24:36;7.97;;;5.33;;
26040;SDS011;13816;53.628;9.950;2024-01-06T01:27:04;5.57;;;4.97;;
26040;SDS011;13816;53.628;9.950;2024-01-06T01:29:31;5.60;;;5.10;;
26040;SDS011;13816;53.628;9.950;2024-01-06T01:31:59;5.90;;;5.20;;
26040;SDS011;13816;53.628;9.950;2024-01-06T01:34:26;7.00;;;5.60;;
26040;SDS011;13816;53.628;9.950;2024-01-06T01:36:54;8.20;;;6.10;;
26040;SDS011;13816;53.628;9.950;2024-01-06T01:39:22;7.23;;;5.90;;
26040;SDS011;13816;53.628;9.950;2024-01-06T01:41:49;7.10;;;5.90;;
26040;SDS011;13816;53.628;9.950;2024-01-06T01:44:16;7.63;;;6.17;;
26040;SDS011;13816;53.628;9.950;2024-01-06T01:46:44;6.80;;;5.97;;
26040;SDS011;13816;53.628;9.950;2024-01-06T01:49:12;9.03;;;6.70;;
26040;SDS011;13816;53.628;9.950;2024-01-06T01:51:42;7.77;;;6.50;;
26040;SDS011;13816;53.628;9.950;2024-01-06T01:54:10;6.20;;;5.60;;
26040;SDS011;13816;53.628;9.950;2024-01-06T01:56:38;7.33;;;5.90;;
26040;SDS011;13816;53.628;9.950;2024-01-06T01:59:09;8.80;;;6.20;;
26040;SDS011;13816;53.628;9.950;2024-01-06T02:01:41;8.43;;;6.43;;
26040;SDS011;13816;53.628;9.950;2024-01-06T02:04:09;8.90;;;6.70;;
26040;SDS011;13816;53.628;9.950;2024-01-06T02:06:36;6.73;;;6.03;;
26040;SDS011;13816;53.628;9.950;2024-01-06T02:09:04;6.90;;;6.20;;
26040;SDS011;13816;53.628;9.950;2024-01-06T02:11:32;6.57;;;5.97;;
26040;SDS011;13816;53.628;9.950;2024-01-06T02:13:59;7.60;;;6.20;;
26040;SDS011;13816;53.628;9.950;2024-01-06T02:16:27;7.97;;;6.57;;
26040;SDS011;13816;53.628;9.950;2024-01-06T02:18:54;7.47;;;6.67;;
26040;SDS011;13816;53.628;9.950;2024-01-06T02:21:24;7.50;;;6.70;;
26040;SDS011;13816;53.628;9.950;2024-01-06T02:23:55;7.43;;;6.73;;
26040;SDS011;13816;53.628;9.950;2024-01-06T02:26:23;7.60;;;6.10;;
26040;SDS011;13816;53.628;9.950;2024-01-06T02:28:50;6.67;;;5.80;;
26040;SDS011;13816;53.628;9.950;2024-01-06T02:31:18;7.03;;;6.33;;
26040;SDS011;13816;53.628;9.950;2024-01-06T02:33:45;9.10;;;6.30;;
26040;SDS011;13816;53.628;9.950;2024-01-06T02:36:13;8.83;;;7.30;;
26040;SDS011;13816;53.628;9.950;2024-01-06T02:38:40;8.07;;;6.70;;
26040;SDS011;13816;53.628;9.950;2024-01-06T02:41:07;9.80;;;6.70;;
26040;SDS011;13816;53.628;9.950;2024-01-06T02:43:35;10.10;;;7.20;;
26040;SDS011;13816;53.628;9.950;2024-01-06T02:46:02;8.77;;;7.10;;
26040;SDS011;13816;53.628;9.950;2024-01-06T02:48:30;8.10;;;7.30;;
26040;SDS011;13816;53.628;9.950;2024-01-06T02:50:57;9.63;;;7.10;;
26040;SDS011;13816;53.628;9.950;2024-01-06T02:53:25;10.23;;;8.20;;
26040;SDS011;13816;53.628;9.950;2024-01-06T02:55:52;8.73;;;7.20;;
26040;SDS011;13816;53.628;9.950;2024-01-06T02:58:20;10.73;;;7.13;;
26040;SDS011;13816;53.628;9.950;2024-01-06T03:00:47;10.13;;;6.90;;
26040;SDS011;13816;53.628;9.950;2024-01-06T03:03:15;9.83;;;7.00;;
26040;SDS011;13816;53.628;9.950;2024-01-06T03:05:42;9.67;;;7.50;;
26040;SDS011;13816;53.628;9.950;2024-01-06T03:08:10;8.80;;;7.20;;
26040;SDS011;13816;53.628;9.950;2024-01-06T03:10:37;8.30;;;7.43;;
26040;SDS011;13816;53.628;9.950;2024-01-06T03:13:05;11.40;;;7.80;;
26040;SDS011;13816;53.628;9.950;2024-01-06T03:15:32;14.83;;;8.57;;
26040;SDS011;13816;53.628;9.950;2024-01-06T03:18:00;9.00;;;7.83;;
26040;SDS011;13816;53.628;9.950;2024-01-06T03:20:27;8.90;;;7.07;;
26040;SDS011;13816;53.628;9.950;2024-01-06T03:22:55;10.50;;;8.37;;
26040;SDS011;13816;53.628;9.950;2024-01-06T03:25:22;9.20;;;8.00;;
26040;SDS011;13816;53.628;9.950;2024-01-06T03:27:49;8.97;;;7.63;;
26040;SDS011;13816;53.628;9.950;2024-01-06T03:30:17;10.20;;;8.20;;
26040;SDS011;13816;53.628;9.950;2024-01-06T03:32:44;9.40;;;7.90;;
26040;SDS011;13816;53.628;9.950;2024-01-06T03:35:12;9.40;;;7.87;;
26040;SDS011;13816;53.628;9.950;2024-01-06T03:37:39;11.17;;;7.90;;
26040;SDS011;13816;53.628;9.950;2024-01-06T03:40:07;9.87;;;7.90;;
26040;SDS011;13816;53.628;9.950;2024-01-06T03:42:35;12.53;;;9.17;;
26040;SDS011;13816;53.628;9.950;2024-01-06T03:45:03;9.80;;;8.10;;
26040;SDS011;13816;53.628;9.950;2024-01-06T03:47:31;9.40;;;8.40;;
26040;SDS011;13816;53.628;9.950;2024-01-06T03:49:58;11.37;;;8.63;;
26040;SDS011;13816;53.628;9.950;2024-01-06T03:52:26;9.93;;;8.70;;
26040;SDS011;13816;53.628;9.950;2024-01-06T03:54:53;10.13;;;7.90;;
26040;SDS011;13816;53.628;9.950;2024-01-06T03:57:21;8.73;;;7.80;;
26040;SDS011;13816;53.628;9.950;2024-01-06T03:59:48;9.60;;;7.87;;
26040;SDS011;13816;53.628;9.950;2024-01-06T04:02:15;9.70;;;8.23;;
26040;SDS011;13816;53.628;9.950;2024-01-06T04:04:43;9.40;;;8.40;;
26040;SDS011;13816;53.628;9.950;2024-01-06T04:07:10;8.93;;;7.03;;
26040;SDS011;13816;53.628;9.950;2024-01-06T04:09:38;11.30;;;8.73;;
26040;SDS011;13816;53.628;9.950;2024-01-06T04:12:08;8.80;;;7.40;;
26040;SDS011;13816;53.628;9.950;2024-01-06T04:14:36;11.53;;;7.60;;
26040;SDS011;13816;53.628;9.950;2024-01-06T04:17:03;8.60;;;7.23;;
26040;SDS011;13816;53.628;9.950;2024-01-06T04:19:31;9.93;;;7.83;;
26040;SDS011;13816;53.628;9.950;2024-01-06T04:21:59;8.53;;;7.47;;
26040;SDS011;13816;53.628;9.950;2024-01-06T04:24:27;8.40;;;6.97;;
26040;SDS011;13816;53.628;9.950;2024-01-06T04:26:54;10.03;;;7.43;;
26040;SDS011;13816;53.628;9.950;2024-01-06T04:29:22;7.37;;;6.53;;
26040;SDS011;13816;53.628;9.950;2024-01-06T04:31:49;8.43;;;7.13;;
26040;SDS011;13816;53.628;9.950;2024-01-06T04:34:17;10.70;;;8.60;;
26040;SDS011;13816;53.628;9.950;2024-01-06T04:36:45;9.83;;;7.17;;
26040;SDS011;13816;53.628;9.950;2024-01-06T04:39:13;11.80;;;8.30;;
26040;SDS011;13816;53.628;9.950;2024-01-06T04:41:40;9.10;;;7.27;;
26040;SDS011;13816;53.628;9.950;2024-01-06T04:44:08;7.67;;;6.67;;
26040;SDS011;13816;53.628;9.950;2024-01-06T04:46:35;8.70;;;7.27;;
26040;SDS011;13816;53.628;9.950;2024-01-06T04:49:03;11.13;;;7.23;;
26040;SDS011;13816;53.628;9.950;2024-01-06T04:51:31;11.00;;;8.03;;
26040;SDS011;13816;53.628;9.950;2024-01-06T04:53:58;10.83;;;7.43;;
26040;SDS011;13816;53.628;9.950;2024-01-06T04:56:26;9.73;;;8.13;;
26040;SDS011;13816;53.628;9.950;2024-01-06T04:58:53;10.70;;;7.73;;
26040;SDS011;13816;53.628;9.950;2024-01-06T05:01:21;9.73;;;7.77;;
26040;SDS011;13816;53.628;9.950;2024-01-06T05:03:48;9.03;;;7.27;;
26040;SDS011;13816;53.628;9.950;2024-01-06T05:06:16;9.90;;;7.73;;
26040;SDS011;13816;53.628;9.950;2024-01-06T05:08:43;10.27;;;7.53;;
26040;SDS011;13816;53.628;9.950;2024-01-06T05:11:11;10.23;;;8.23;;
26040;SDS011;13816;53.628;9.950;2024-01-06T05:13:38;11.60;;;8.93;;
26040;SDS011;13816;53.628;9.950;2024-01-06T05:16:07;9.10;;;7.90;;
26040;SDS011;13816;53.628;9.950;2024-01-06T05:18:35;8.60;;;7.70;;
26040;SDS011;13816;53.628;9.950;2024-01-06T05:21:03;9.90;;;7.77;;
26040;SDS011;13816;53.628;9.950;2024-01-06T05:23:30;8.53;;;7.60;;
26040;SDS011;13816;53.628;9.950;2024-01-06T05:25:58;9.43;;;7.90;;
26040;SDS011;13816;53.628;9.950;2024-01-06T05:28:25;11.13;;;8.07;;
26040;SDS011;13816;53.628;9.950;2024-01-06T05:30:52;12.17;;;8.80;;
26040;SDS011;13816;53.628;9.950;2024-01-06T05:33:20;10.67;;;8.33;;
26040;SDS011;13816;53.628;9.950;2024-01-06T05:35:47;10.93;;;7.57;;
26040;SDS011;13816;53.628;9.950;2024-01-06T05:38:15;11.47;;;9.10;;
26040;SDS011;13816;53.628;9.950;2024-01-06T05:40:43;9.27;;;8.00;;
26040;SDS011;13816;53.628;9.950;2024-01-06T05:43:10;12.37;;;8.40;;
26040;SDS011;13816;53.628;9.950;2024-01-06T05:45:38;10.97;;;8.40;;
26040;SDS011;13816;53.628;9.950;2024-01-06T05:48:08;10.50;;;8.70;;
26040;SDS011;13816;53.628;9.950;2024-01-06T05:50:37;11.83;;;8.80;;
26040;SDS011;13816;53.628;9.950;2024-01-06T05:53:06;11.00;;;8.87;;
26040;SDS011;13816;53.628;9.950;2024-01-06T05:55:33;13.80;;;9.20;;
26040;SDS011;13816;53.628;9.950;2024-01-06T05:58:01;12.40;;;9.80;;
26040;SDS011;13816;53.628;9.950;2024-01-06T06:00:28;13.87;;;10.33;;
26040;SDS011;13816;53.628;9.950;2024-01-06T06:02:58;12.07;;;9.77;;
26040;SDS011;13816;53.628;9.950;2024-01-06T06:05:25;11.77;;;8.60;;
26040;SDS011;13816;53.628;9.950;2024-01-06T06:07:53;13.03;;;9.63;;
26040;SDS011;13816;53.628;9.950;2024-01-06T06:10:21;14.70;;;9.40;;
26040;SDS011;13816;53.628;9.950;2024-01-06T06:12:48;13.90;;;9.30;;
26040;SDS011;13816;53.628;9.950;2024-01-06T06:15:16;12.13;;;9.43;;
26040;SDS011;13816;53.628;9.950;2024-01-06T06:17:43;13.60;;;10.40;;
26040;SDS011;13816;53.628;9.950;2024-01-06T06:20:10;13.17;;;9.13;;
26040;SDS011;13816;53.628;9.950;2024-01-06T06:22:38;15.40;;;9.97;;
26040;SDS011;13816;53.628;9.950;2024-01-06T06:25:05;11.80;;;8.73;;
26040;SDS011;13816;53.628;9.950;2024-01-06T06:27:33;13.00;;;9.50;;
26040;SDS011;13816;53.628;9.950;2024-01-06T06:30:02;12.00;;;9.10;;
26040;SDS011;13816;53.628;9.950;2024-01-06T06:32:30;13.50;;;9.70;;
26040;SDS011;13816;53.628;9.950;2024-01-06T06:34:57;13.17;;;9.90;;
26040;SDS011;13816;53.628;9.950;2024-01-06T06:37:25;12.47;;;9.83;;
26040;SDS011;13816;53.628;9.950;2024-01-06T06:39:52;13.47;;;10.47;;
26040;SDS011;13816;53.628;9.950;2024-01-06T06:42:20;15.50;;;10.60;;
26040;SDS011;13816;53.628;9.950;2024-01-06T06:44:47;14.40;;;10.80;;
26040;SDS011;13816;53.628;9.950;2024-01-06T06:47:16;17.10;;;12.20;;
26040;SDS011;13816;53.628;9.950;2024-01-06T06:49:43;12.60;;;9.80;;
26040;SDS011;13816;53.628;9.950;2024-01-06T06:52:11;12.63;;;9.90;;
26040;SDS011;13816;53.628;9.950;2024-01-06T06:54:39;14.70;;;10.70;;
26040;SDS011;13816;53.628;9.950;2024-01-06T06:57:07;13.00;;;9.80;;
26040;SDS011;13816;53.628;9.950;2024-01-06T09:54:42;21.13;;;13.63;;
26040;SDS011;13816;53.628;9.950;2024-01-06T09:57:13;16.57;;;10.93;;
26040;SDS011;13816;53.628;9.950;2024-01-06T09:59:43;16.37;;;10.37;;
26040;SDS011;13816;53.628;9.950;2024-01-06T10:02:15;18.13;;;11.47;;
26040;SDS011;13816;53.628;9.950;2024-01-06T10:04:46;19.90;;;12.13;;
26040;SDS011;13816;53.628;9.950;2024-01-06T10:07:14;14.30;;;9.80;;
26040;SDS011;13816;53.628;9.950;2024-01-06T10:09:42;13.83;;;9.80;;
26040;SDS011;13816;53.628;9.950;2024-01-06T10:12:13;16.47;;;10.67;;
26040;SDS011;13816;53.628;9.950;2024-01-06T10:14:41;13.07;;;9.30;;
26040;SDS011;13816;53.628;9.950;2024-01-06T10:17:09;15.53;;;9.70;;
26040;SDS011;13816;53.628;9.950;2024-01-06T10:19:37;11.63;;;9.57;;
26040;SDS011;13816;53.628;9.950;2024-01-06T10:22:05;16.40;;;10.27;;
26040;SDS011;13816;53.628;9.950;2024-01-06T10:24:36;16.07;;;9.80;;
26040;SDS011;13816;53.628;9.950;2024-01-06T10:27:04;13.47;;;9.53;;
26040;SDS011;13816;53.628;9.950;2024-01-06T10:29:33;13.33;;;9.13;;
26040;SDS011;13816;53.628;9.950;2024-01-06T10:32:01;13.27;;;9.73;;
26040;SDS011;13816;53.628;9.950;2024-01-06T10:34:29;12.53;;;8.80;;
26040;SDS011;13816;53.628;9.950;2024-01-06T10:37:00;14.77;;;9.83;;
26040;SDS011;13816;53.628;9.950;2024-01-06T11:10:52;11.67;;;8.20;;
26040;SDS011;13816;53.628;9.950;2024-01-06T11:13:21;12.50;;;7.80;;
26040;SDS011;13816;53.628;9.950;2024-01-06T11:15:53;10.13;;;7.70;;
26040;SDS011;13816;53.628;9.950;2024-01-06T11:21:41;15.00;;;9.00;;
26040;SDS011;13816;53.628;9.950;2024-01-06T11:26:08;25.33;;;12.50;;
26040;SDS011;13816;53.628;9.950;2024-01-06T11:30:03;10.87;;;7.70;;
26040;SDS011;13816;53.628;9.950;2024-01-06T11:32:33;10.27;;;7.93;;
26040;SDS011;13816;53.628;9.950;2024-01-06T11:35:13;10.60;;;7.30;;
26040;SDS011;13816;53.628;9.950;2024-01-06T11:40:48;11.97;;;7.37;;
26040;SDS011;13816;53.628;9.950;2024-01-06T11:43:26;11.77;;;8.07;;
26040;SDS011;13816;53.628;9.950;2024-01-06T11:57:06;8.90;;;6.23;;
26040;SDS011;13816;53.628;9.950;2024-01-06T11:59:33;10.47;;;6.70;;
26040;SDS011;13816;53.628;9.950;2024-01-06T12:02:03;11.23;;;7.67;;
26040;SDS011;13816;53.628;9.950;2024-01-06T12:16:22;7.70;;;5.40;;
26040;SDS011;13816;53.628;9.950;2024-01-06T12:28:45;6.67;;;4.70;;
26040;SDS011;13816;53.628;9.950;2024-01-06T12:58:58;6.33;;;5.10;;
26040;SDS011;13816;53.628;9.950;2024-01-06T13:01:26;5.70;;;5.07;;
26040;SDS011;13816;53.628;9.950;2024-01-06T13:03:54;10.13;;;5.97;;
26040;SDS011;13816;53.628;9.950;2024-01-06T13:06:21;5.27;;;4.67;;
26040;SDS011;13816;53.628;9.950;2024-01-06T13:08:49;7.80;;;4.83;;
26040;SDS011;13816;53.628;9.950;2024-01-06T13:11:16;5.80;;;4.83;;
26040;SDS011;13816;53.628;9.950;2024-01-06T13:13:45;6.20;;;5.30;;
26040;SDS011;13816;53.628;9.950;2024-01-06T13:16:12;11.37;;;5.37;;
26040;SDS011;13816;53.628;9.950;2024-01-06T13:18:40;7.53;;;5.07;;
26040;SDS011;13816;53.628;9.950;2024-01-06T13:21:07;7.10;;;5.13;;
26040;SDS011;13816;53.628;9.950;2024-01-06T13:23:35;6.60;;;5.33;;
26040;SDS011;13816;53.628;9.950;2024-01-06T13:26:02;8.90;;;5.90;;
26040;SDS011;13816;53.628;9.950;2024-01-06T13:28:30;7.00;;;5.87;;
26040;SDS011;13816;53.628;9.950;2024-01-06T13:30:57;6.93;;;5.53;;
26040;SDS011;13816;53.628;9.950;2024-01-06T13:33:25;6.60;;;5.23;;
26040;SDS011;13816;53.628;9.950;2024-01-06T13:35:52;5.60;;;5.10;;
26040;SDS011;13816;53.628;9.950;2024-01-06T13:38:20;5.57;;;4.77;;
26040;SDS011;13816;53.628;9.950;2024-01-06T13:40:48;6.43;;;4.63;;
26040;SDS011;13816;53.628;9.950;2024-01-06T13:43:16;5.97;;;5.00;;
26040;SDS011;13816;53.628;9.950;2024-01-06T13:45:43;5.77;;;5.00;;
26040;SDS011;13816;53.628;9.950;2024-01-06T13:48:11;5.40;;;4.90;;
26040;SDS011;13816;53.628;9.950;2024-01-06T13:50:39;9.30;;;6.03;;
26040;SDS011;13816;53.628;9.950;2024-01-06T13:53:06;6.03;;;4.70;;
26040;SDS011;13816;53.628;9.950;2024-01-06T13:55:34;8.00;;;5.00;;
26040;SDS011;13816;53.628;9.950;2024-01-06T13:58:01;7.33;;;4.47;;
26040;SDS011;13816;53.628;9.950;2024-01-06T14:00:29;8.00;;;5.13;;
26040;SDS011;13816;53.628;9.950;2024-01-06T14:02:57;5.93;;;4.63;;
26040;SDS011;13816;53.628;9.950;2024-01-06T14:05:24;10.70;;;6.13;;
26040;SDS011;13816;53.628;9.950;2024-01-06T14:07:52;6.67;;;5.73;;
26040;SDS011;13816;53.628;9.950;2024-01-06T14:10:19;8.27;;;4.20;;
26040;SDS011;13816;53.628;9.950;2024-01-06T14:12:47;5.53;;;4.50;;
26040;SDS011;13816;53.628;9.950;2024-01-06T14:15:14;6.63;;;4.67;;
26040;SDS011;13816;53.628;9.950;2024-01-06T14:17:42;5.47;;;4.33;;
26040;SDS011;13816;53.628;9.950;2024-01-06T14:20:16;5.97;;;4.43;;
26040;SDS011;13816;53.628;9.950;2024-01-06T14:22:47;9.27;;;5.97;;
26040;SDS011;13816;53.628;9.950;2024-01-06T14:25:15;5.23;;;4.50;;
26040;SDS011;13816;53.628;9.950;2024-01-06T14:27:46;6.50;;;4.30;;
26040;SDS011;13816;53.628;9.950;2024-01-06T14:30:14;8.67;;;5.57;;
26040;SDS011;13816;53.628;9.950;2024-01-06T14:32:42;6.30;;;5.00;;
26040;SDS011;13816;53.628;9.950;2024-01-06T14:35:09;7.43;;;6.03;;
26040;SDS011;13816;53.628;9.950;2024-01-06T14:37:38;7.27;;;5.60;;
26040;SDS011;13816;53.628;9.950;2024-01-06T14:40:06;9.13;;;6.40;;
26040;SDS011;13816;53.628;9.950;2024-01-06T14:42:34;5.77;;;5.17;;
26040;SDS011;13816;53.628;9.950;2024-01-06T14:45:03;7.63;;;5.53;;
26040;SDS011;13816;53.628;9.950;2024-01-06T14:47:30;5.47;;;4.97;;
26040;SDS011;13816;53.628;9.950;2024-01-06T14:49:59;5.63;;;5.13;;
26040;SDS011;13816;53.628;9.950;2024-01-06T14:52:26;7.50;;;6.00;;
26040;SDS011;13816;53.628;9.950;2024-01-06T14:54:54;8.40;;;4.97;;
26040;SDS011;13816;53.628;9.950;2024-01-06T14:57:22;7.87;;;5.87;;
26040;SDS011;13816;53.628;9.950;2024-01-06T14:59:49;6.33;;;5.70;;
26040;SDS011;13816;53.628;9.950;2024-01-06T15:02:16;10.10;;;6.13;;
26040;SDS011;13816;53.628;9.950;2024-01-06T15:04:44;7.00;;;5.60;;
26040;SDS011;13816;53.628;9.950;2024-01-06T15:07:12;5.70;;;5.10;;
26040;SDS011;13816;53.628;9.950;2024-01-06T15:09:39;10.50;;;6.60;;
26040;SDS011;13816;53.628;9.950;2024-01-06T15:12:07;9.43;;;6.77;;
26040;SDS011;13816;53.628;9.950;2024-01-06T15:14:34;9.60;;;6.30;;
26040;SDS011;13816;53.628;9.950;2024-01-06T15:17:02;13.00;;;7.63;;
26040;SDS011;13816;53.628;9.950;2024-01-06T15:19:29;23.60;;;11.43;;
26040;SDS011;13816;53.628;9.950;2024-01-06T15:21:58;16.00;;;8.07;;
26040;SDS011;13816;53.628;9.950;2024-01-06T15:24:25;16.23;;;7.97;;
26040;SDS011;13816;53.628;9.950;2024-01-06T15:26:53;11.83;;;7.90;;
26040;SDS011;13816;53.628;9.950;2024-01-06T15:29:20;15.40;;;8.83;;
26040;SDS011;13816;53.628;9.950;2024-01-06T15:31:48;18.30;;;9.10;;
26040;SDS011;13816;53.628;9.950;2024-01-06T15:34:15;17.30;;;9.00;;
26040;SDS011;13816;53.628;9.950;2024-01-06T15:36:43;11.93;;;8.40;;
26040;SDS011;13816;53.628;9.950;2024-01-06T15:39:11;15.70;;;9.80;;
26040;SDS011;13816;53.628;9.950;2024-01-06T15:41:40;14.30;;;8.67;;
26040;SDS011;13816;53.628;9.950;2024-01-06T15:44:08;12.97;;;7.10;;
26040;SDS011;13816;53.628;9.950;2024-01-06T15:46:35;14.80;;;9.43;;
26040;SDS011;13816;53.628;9.950;2024-01-06T15:49:03;21.20;;;13.10;;
26040;SDS011;13816;53.628;9.950;2024-01-06T15:51:31;19.47;;;9.70;;
26040;SDS011;13816;53.628;9.950;2024-01-06T15:53:59;11.40;;;8.30;;
26040;SDS011;13816;53.628;9.950;2024-01-06T15:56:26;8.97;;;6.93;;
26040;SDS011;13816;53.628;9.950;2024-01-06T15:58:54;11.87;;;7.37;;
26040;SDS011;13816;53.628;9.950;2024-01-06T16:01:23;8.60;;;7.20;;
26040;SDS011;13816;53.628;9.950;2024-01-06T16:03:53;9.13;;;7.00;;
26040;SDS011;13816;53.628;9.950;2024-01-06T16:06:20;12.17;;;8.40;;
26040;SDS011;13816;53.628;9.950;2024-01-06T16:08:48;12.83;;;7.73;;
26040;SDS011;13816;53.628;9.950;2024-01-06T16:11:15;7.90;;;6.33;;
26040;SDS011;13816;53.628;9.950;2024-01-06T16:13:43;13.10;;;7.60;;
26040;SDS011;13816;53.628;9.950;2024-01-06T16:16:10;14.00;;;7.33;;
26040;SDS011;13816;53.628;9.950;2024-01-06T16:18:38;12.40;;;6.83;;
26040;SDS011;13816;53.628;9.950;2024-01-06T16:21:06;11.10;;;7.33;;
26040;SDS011;13816;53.628;9.950;2024-01-06T16:23:33;7.13;;;6.17;;
26040;SDS011;13816;53.628;9.950;2024-01-06T16:26:01;8.60;;;6.50;;
26040;SDS011;13816;53.628;9.950;2024-01-06T16:28:29;7.87;;;6.60;;
26040;SDS011;13816;53.628;9.950;2024-01-06T16:30:56;8.27;;;6.60;;
26040;SDS011;13816;53.628;9.950;2024-01-06T16:33:24;8.90;;;6.63;;
26040;SDS011;13816;53.628;9.950;2024-01-06T16:35:52;13.07;;;7.87;;
26040;SDS011;13816;53.628;9.950;2024-01-06T16:38:25;10.20;;;7.10;;
26040;SDS011;13816;53.628;9.950;2024-01-06T16:41:25;16.10;;;6.53;;
26040;SDS011;13816;53.628;9.950;2024-01-06T16:43:55;7.90;;;5.80;;
26040;SDS011;13816;53.628;9.950;2024-01-06T16:46:39;8.40;;;5.63;;
26040;SDS011;13816;53.628;9.950;2024-01-06T16:49:20;8.70;;;5.30;;
26040;SDS011;13816;53.628;9.950;2024-01-06T16:52:00;7.40;;;5.47;;
26040;SDS011;13816;53.628;9.950;2024-01-06T16:54:34;8.90;;;5.50;;
26040;SDS011;13816;53.628;9.950;2024-01-06T16:57:10;9.50;;;5.00;;
26040;SDS011;13816;53.628;9.950;2024-01-06T16:59:43;7.07;;;5.10;;
26040;SDS011;13816;53.628;9.950;2024-01-06T17:02:19;9.03;;;4.53;;
26040;SDS011;13816;53.628;9.950;2024-01-06T17:04:47;13.43;;;5.80;;
26040;SDS011;13816;53.628;9.950;2024-01-06T17:07:15;6.57;;;5.10;;
26040;SDS011;13816;53.628;9.950;2024-01-06T17:09:42;6.57;;;5.40;;
26040;SDS011;13816;53.628;9.950;2024-01-06T17:12:13;8.70;;;6.50;;
26040;SDS011;13816;53.628;9.950;2024-01-06T17:14:40;7.40;;;6.60;;
26040;SDS011;13816;53.628;9.950;2024-01-06T17:17:08;12.77;;;7.70;;
26040;SDS011;13816;53.628;9.950;2024-01-06T17:19:37;11.23;;;7.40;;
26040;SDS011;13816;53.628;9.950;2024-01-06T17:22:05;9.50;;;7.40;;
26040;SDS011;13816;53.628;9.950;2024-01-06T17:24:33;10.80;;;7.73;;
26040;SDS011;13816;53.628;9.950;2024-01-06T17:27:03;10.40;;;7.87;;
26040;SDS011;13816;53.628;9.950;2024-01-06T17:29:31;8.60;;;7.13;;
26040;SDS011;13816;53.628;9.950;2024-01-06T17:31:59;11.17;;;8.30;;
26040;SDS011;13816;53.628;9.950;2024-01-06T17:34:27;10.70;;;6.97;;
26040;SDS011;13816;53.628;9.950;2024-01-06T17:36:55;10.10;;;7.03;;
26040;SDS011;13816;53.628;9.950;2024-01-06T17:39:23;11.50;;;6.87;;
26040;SDS011;13816;53.628;9.950;2024-01-06T17:41:51;10.20;;;7.80;;
26040;SDS011;13816;53.628;9.950;2024-01-06T17:44:24;9.03;;;6.63;;
26040;SDS011;13816;53.628;9.950;2024-01-06T17:46:52;11.20;;;7.00;;
26040;SDS011;13816;53.628;9.950;2024-01-06T17:49:19;8.27;;;5.97;;
26040;SDS011;13816;53.628;9.950;2024-01-06T17:51:47;9.07;;;8.07;;
26040;SDS011;13816;53.628;9.950;2024-01-06T17:54:15;12.67;;;9.23;;
26040;SDS011;13816;53.628;9.950;2024-01-06T17:56:42;7.43;;;6.30;;
26040;SDS011;13816;53.628;9.950;2024-01-06T17:59:10;5.97;;;4.70;;
26040;SDS011;13816;53.628;9.950;2024-01-06T18:01:38;10.90;;;6.17;;
26040;SDS011;13816;53.628;9.950;2024-01-06T18:04:06;6.30;;;5.57;;
26040;SDS011;13816;53.628;9.950;2024-01-06T18:06:33;6.90;;;6.20;;
26040;SDS011;13816;53.628;9.950;2024-01-06T18:09:01;7.77;;;6.47;;
26040;SDS011;13816;53.628;9.950;2024-01-06T18:11:28;9.17;;;5.87;;
26040;SDS011;13816;53.628;9.950;2024-01-06T18:13:56;11.50;;;7.07;;
26040;SDS011;13816;53.628;9.950;2024-01-06T18:16:23;6.17;;;5.50;;
26040;SDS011;13816;53.628;9.950;2024-01-06T18:18:51;6.70;;;5.60;;
26040;SDS011;13816;53.628;9.950;2024-01-06T18:21:18;5.83;;;5.03;;
26040;SDS011;13816;53.628;9.950;2024-01-06T18:23:46;9.37;;;6.37;;
26040;SDS011;13816;53.628;9.950;2024-01-06T18:26:13;7.20;;;5.60;;
26040;SDS011;13816;53.628;9.950;2024-01-06T18:28:42;7.90;;;5.23;;
26040;SDS011;13816;53.628;9.950;2024-01-06T18:31:10;7.67;;;5.50;;
26040;SDS011;13816;53.628;9.950;2024-01-06T18:33:38;6.07;;;5.50;;
26040;SDS011;13816;53.628;9.950;2024-01-06T18:36:05;6.87;;;5.70;;
26040;SDS011;13816;53.628;9.950;2024-01-06T18:38:33;9.20;;;5.80;;
26040;SDS011;13816;53.628;9.950;2024-01-06T18:41:00;7.90;;;5.47;;
26040;SDS011;13816;53.628;9.950;2024-01-06T18:43:28;7.60;;;6.00;;
26040;SDS011;13816;53.628;9.950;2024-01-06T18:45:56;7.73;;;6.30;;
26040;SDS011;13816;53.628;9.950;2024-01-06T18:48:24;7.33;;;5.67;;
26040;SDS011;13816;53.628;9.950;2024-01-06T18:50:51;6.47;;;5.80;;
26040;SDS011;13816;53.628;9.950;2024-01-06T18:53:19;8.20;;;5.70;;
26040;SDS011;13816;53.628;9.950;2024-01-06T18:55:47;6.83;;;5.67;;
26040;SDS011;13816;53.628;9.950;2024-01-06T18:58:14;10.23;;;7.17;;
26040;SDS011;13816;53.628;9.950;2024-01-06T19:00:42;8.73;;;5.60;;
26040;SDS011;13816;53.628;9.950;2024-01-06T19:03:09;7.70;;;4.67;;
26040;SDS011;13816;53.628;9.950;2024-01-06T19:05:37;6.67;;;5.17;;
26040;SDS011;13816;53.628;9.950;2024-01-06T19:08:04;8.07;;;5.63;;
26040;SDS011;13816;53.628;9.950;2024-01-06T19:10:32;9.40;;;5.97;;
26040;SDS011;13816;53.628;9.950;2024-01-06T19:13:01;7.63;;;5.10;;
26040;SDS011;13816;53.628;9.950;2024-01-06T19:15:31;10.10;;;5.87;;
26040;SDS011;13816;53.628;9.950;2024-01-06T19:17:59;6.50;;;5.00;;
26040;SDS011;13816;53.628;9.950;2024-01-06T19:20:26;11.40;;;5.13;;
26040;SDS011;13816;53.628;9.950;2024-01-06T19:22:54;7.53;;;5.23;;
26040;SDS011;13816;53.628;9.950;2024-01-06T19:25:27;7.50;;;6.20;;
26040;SDS011;13816;53.628;9.950;2024-01-06T19:27:55;6.70;;;4.93;;
26040;SDS011;13816;53.628;9.950;2024-01-06T19:30:24;7.47;;;4.80;;
26040;SDS011;13816;53.628;9.950;2024-01-06T19:32:52;7.07;;;5.80;;
26040;SDS011;13816;53.628;9.950;2024-01-06T19:35:20;8.27;;;5.40;;
26040;SDS011;13816;53.628;9.950;2024-01-06T19:37:47;7.43;;;4.50;;
26040;SDS011;13816;53.628;9.950;2024-01-06T19:40:15;6.30;;;5.00;;
26040;SDS011;13816;53.628;9.950;2024-01-06T19:42:47;9.13;;;4.90;;
26040;SDS011;13816;53.628;9.950;2024-01-06T19:45:15;6.30;;;4.67;;
26040;SDS011;13816;53.628;9.950;2024-01-06T19:47:43;10.53;;;5.93;;
26040;SDS011;13816;53.628;9.950;2024-01-06T19:50:12;9.07;;;6.10;;
26040;SDS011;13816;53.628;9.950;2024-01-06T19:52:40;6.33;;;5.43;;
26040;SDS011;13816;53.628;9.950;2024-01-06T19:55:08;6.97;;;4.77;;
26040;SDS011;13816;53.628;9.950;2024-01-06T19:57:36;7.40;;;6.20;;
26040;SDS011;13816;53.628;9.950;2024-01-06T20:00:04;9.17;;;5.63;;
26040;SDS011;13816;53.628;9.950;2024-01-06T20:03:11;6.00;;;4.73;;
26040;SDS011;13816;53.628;9.950;2024-01-06T20:06:05;8.70;;;5.17;;
26040;SDS011;13816;53.628;9.950;2024-01-06T20:08:39;6.70;;;5.40;;
26040;SDS011;13816;53.628;9.950;2024-01-06T20:11:08;6.80;;;5.40;;
26040;SDS011;13816;53.628;9.950;2024-01-06T20:14:42;8.03;;;6.17;;
26040;SDS011;13816;53.628;9.950;2024-01-06T20:17:18;6.40;;;4.80;;
26040;SDS011;13816;53.628;9.950;2024-01-06T20:19:51;7.13;;;4.80;;
26040;SDS011;13816;53.628;9.950;2024-01-06T20:22:25;6.87;;;5.00;;
26040;SDS011;13816;53.628;9.950;2024-01-06T20:24:55;6.07;;;4.73;;